PWSweather.com
Personal Weather Stations
Station Observations
AF1HS
North Haven, CT 06473

North Haven, CT 06473

Lat: 41.3733, Lon: -72.8413

Elevation: 85.3

Station Type: Oregon Scientific WMR968

http://www.af1hs.com/wx/index.php

Latest ConditionsUpdated 6:20:03 AM EDT Saturday, May 25, 2019
Currently Today's Max Today's Min Today's Average
Temperature 48.9°F9.4°C 59.5°F15.3°C 47.3°F8.5°C 52.5°F11.4°C
Dew Point 35.2°F1.8°C 38.7°F3.7°C 33.3°F0.7°C 35.9°F2.2°C
Winds Calm Calm 4.6 mph -7.4 kmh - - 0.8 mph 1.3 kmh
Wind Gusts -- 5.8 mph9.3 kmh - -
Humidity 59% 59% 45% 53%
Pressure 30.15 in1021.0 mb 30.15 in1021.0 mb 30.07 in1018.3 mb -
Hour Temp Dew Point Humidity Winds Wind Gusts Pressure Precip Precip Rate Daily Precip Total
06:20 AM 48.9°F9.4°C 35.2°F1.8°C 59% Calm Calm -- 30.15 in1021.0 mb - 0.00 in0.0 mm 0.00 in0.0 mm
06:10 AM 47.6°F8.7°C 34.0°F1.1°C 59% Calm Calm -- 30.13 in1020.3 mb - 0.00 in0.0 mm 0.00 in0.0 mm
06:00 AM 47.5°F8.6°C 33.9°F1.1°C 59% Calm Calm -- 30.13 in1020.3 mb - 0.00 in0.0 mm 0.00 in0.0 mm
05:50 AM 47.4°F8.6°C 33.8°F1.0°C 59% Calm Calm -- 30.13 in1020.3 mb - 0.00 in0.0 mm 0.00 in0.0 mm
05:40 AM 47.3°F8.5°C 33.3°F0.7°C 58% Calm Calm -- 30.13 in1020.3 mb - 0.00 in0.0 mm 0.00 in0.0 mm
05:30 AM 47.5°F8.6°C 33.4°F0.8°C 58% Calm Calm -- 30.13 in1020.3 mb - 0.00 in0.0 mm 0.00 in0.0 mm
05:20 AM 47.5°F8.6°C 33.4°F0.8°C 58% Calm Calm -- 30.13 in1020.3 mb - 0.00 in0.0 mm 0.00 in0.0 mm
05:10 AM 47.9°F8.8°C 33.8°F1.0°C 58% Calm Calm -- 30.13 in1020.3 mb - 0.00 in0.0 mm 0.00 in0.0 mm
05:00 AM 48.2°F9.0°C 34.1°F1.2°C 58% Calm Calm -- 30.13 in1020.3 mb - 0.00 in0.0 mm 0.00 in0.0 mm
04:50 AM 48.4°F9.1°C 34.3°F1.3°C 58% Calm Calm -- 30.13 in1020.3 mb - 0.00 in0.0 mm 0.00 in0.0 mm
04:40 AM 48.4°F9.1°C 34.3°F1.3°C 58% Calm Calm -- 30.13 in1020.3 mb - 0.00 in0.0 mm 0.00 in0.0 mm
04:30 AM 48.6°F9.2°C 34.1°F1.2°C 57% Calm Calm -- 30.13 in1020.3 mb - 0.00 in0.0 mm 0.00 in0.0 mm
04:20 AM 49.2°F9.6°C 34.1°F1.2°C 56% Calm Calm -- 30.13 in1020.3 mb - 0.00 in0.0 mm 0.00 in0.0 mm
04:10 AM 49.4°F9.7°C 34.3°F1.3°C 56% Calm Calm -- 30.13 in1020.3 mb - 0.00 in0.0 mm 0.00 in0.0 mm
04:00 AM 49.8°F9.9°C 34.7°F1.5°C 56% Calm Calm -- 30.13 in1020.3 mb - 0.00 in0.0 mm 0.00 in0.0 mm
03:50 AM 50.6°F10.3°C 35.0°F1.7°C 55% Calm Calm -- 30.13 in1020.3 mb - 0.00 in0.0 mm 0.00 in0.0 mm
03:40 AM 51.1°F10.6°C 35.5°F1.9°C 55% Calm Calm -- 30.13 in1020.3 mb - 0.00 in0.0 mm 0.00 in0.0 mm
03:30 AM 51.3°F10.7°C 35.6°F2.0°C 55% Calm Calm -- 30.13 in1020.3 mb - 0.00 in0.0 mm 0.00 in0.0 mm
03:20 AM 52.0°F11.1°C 36.3°F2.4°C 55% Calm Calm -- 30.13 in1020.3 mb - 0.00 in0.0 mm 0.00 in0.0 mm
03:10 AM 52.5°F11.4°C 36.4°F2.4°C 54% Calm Calm -- 30.13 in1020.3 mb - 0.00 in0.0 mm 0.00 in0.0 mm
03:00 AM 53.1°F11.7°C 36.8°F2.7°C 54% Calm Calm -- 30.13 in1020.3 mb - 0.00 in0.0 mm 0.00 in0.0 mm
02:50 AM 53.3°F11.8°C 37.1°F2.8°C 54% Calm Calm -- 30.13 in1020.3 mb - 0.00 in0.0 mm 0.00 in0.0 mm
02:40 AM 53.4°F11.9°C 37.2°F2.9°C 54% Calm Calm -- 30.13 in1020.3 mb - 0.00 in0.0 mm 0.00 in0.0 mm
02:30 AM 53.4°F11.9°C 37.2°F2.9°C 54% Calm Calm -- 30.13 in1020.3 mb - 0.00 in0.0 mm 0.00 in0.0 mm
02:20 AM 53.6°F12.0°C 37.3°F2.9°C 54% 1.2 mph ESE1.9 kmh ESE 3.5 mph5.6 kmh 30.12 in1020.0 mb - 0.00 in0.0 mm 0.00 in0.0 mm
02:10 AM 53.8°F12.1°C 37.5°F3.1°C 54% 1.2 mph E1.9 kmh E 3.5 mph5.6 kmh 30.11 in1019.6 mb - 0.00 in0.0 mm 0.00 in0.0 mm
02:00 AM 54.3°F12.4°C 38.0°F3.3°C 54% 2.3 mph SE3.7 kmh SE 4.6 mph7.4 kmh 30.11 in1019.6 mb - 0.00 in0.0 mm 0.00 in0.0 mm
01:50 AM 54.9°F12.7°C 38.0°F3.3°C 53% 3.5 mph SE5.6 kmh SE 4.6 mph7.4 kmh 30.11 in1019.6 mb - 0.00 in0.0 mm 0.00 in0.0 mm
01:40 AM 55.6°F13.1°C 38.7°F3.7°C 53% 4.6 mph SSE7.4 kmh SSE 5.8 mph9.3 kmh 30.11 in1019.6 mb - 0.00 in0.0 mm 0.00 in0.0 mm
01:30 AM 56.5°F13.6°C 35.9°F2.2°C 46% Calm Calm -- 30.07 in1018.3 mb - 0.00 in0.0 mm 0.00 in0.0 mm
01:20 AM 57.2°F14.0°C 36.6°F2.6°C 46% Calm Calm -- 30.07 in1018.3 mb - 0.00 in0.0 mm 0.00 in0.0 mm
01:10 AM 57.6°F14.2°C 36.4°F2.4°C 45% Calm Calm -- 30.07 in1018.3 mb - 0.00 in0.0 mm 0.00 in0.0 mm
01:00 AM 57.7°F14.3°C 36.5°F2.5°C 45% 1.2 mph N1.9 kmh N 3.5 mph5.6 kmh 30.07 in1018.3 mb - 0.00 in0.0 mm 0.00 in0.0 mm
12:50 AM 58.1°F14.5°C 36.9°F2.7°C 45% 2.3 mph NNW3.7 kmh NNW 5.8 mph9.3 kmh 30.07 in1018.3 mb - 0.00 in0.0 mm 0.00 in0.0 mm
12:40 AM 58.6°F14.8°C 37.3°F2.9°C 45% 3.5 mph N5.6 kmh N 3.5 mph5.6 kmh 30.07 in1018.3 mb - 0.00 in0.0 mm 0.00 in0.0 mm
12:30 AM 58.8°F14.9°C 37.5°F3.1°C 45% 1.2 mph 1.9 kmh 5.8 mph9.3 kmh 30.07 in1018.3 mb - 0.00 in0.0 mm 0.00 in0.0 mm
12:20 AM 59.0°F15.0°C 37.7°F3.2°C 45% 4.6 mph N7.4 kmh N 5.8 mph9.3 kmh 30.07 in1018.3 mb - 0.00 in0.0 mm 0.00 in0.0 mm
12:10 AM 59.4°F15.2°C 38.0°F3.3°C 45% 2.3 mph NNE3.7 kmh NNE 2.3 mph3.7 kmh 30.07 in1018.3 mb - 0.00 in0.0 mm 0.00 in0.0 mm
12:00 AM 59.5°F15.3°C 38.2°F3.4°C 45% 3.5 mph NNE5.6 kmh NNE 5.8 mph9.3 kmh 30.07 in1018.3 mb - 0.00 in0.0 mm 0.00 in0.0 mm